Flight Track Log - Related Links

Times and Time Zones

All times are in EDT time to prevent confusion due to time zone crossing. See the N884WT flight status page for this flight to view local times or setup timezone preferences in your user account.

Time Position Orientation Groundspeed Altitude Reporting Facility
EDT Latitude Longitude Course Direction KTS MPH feet Rate Location/Type
Thu 04:37:26 PM 37.3784 -121.9470 319° Northwest 198 228 1,300  Level FlightAware ADS-B
Thu 04:37:43 PM 37.3905 -121.9610 318° Northwest 187 215 2,600 4,182 Climbing FlightAware ADS-B
Thu 04:37:59 PM 37.4011 -121.9720 327° Northwest 185 213 3,600 3,484 Climbing FlightAware ADS-B
Thu 04:38:14 PM 37.4138 -121.9750 North 190 219 4,400 2,516 Climbing FlightAware ADS-B
Thu 04:38:30 PM 37.4265 -121.9672 45° Northeast 197 227 4,900 938 Climbing FlightAware ADS-B (EPLL / LCJ)
Thu 04:38:46 PM 37.4326 -121.9513 85° East 199 229 4,900  Level FlightAware ADS-B
Thu 04:39:01 PM 37.4297 -121.9344 122° Southeast 200 230 4,900  Level FlightAware ADS-B
Thu 04:39:21 PM 37.4184 -121.9200 138° Southeast 204 235 4,900  Level FlightAware ADS-B
Thu 04:39:37 PM 37.4037 -121.9040 138° Southeast 232 267 4,900 529 Level FlightAware ADS-B
Thu 04:39:55 PM 37.3884 -121.8860 138° Southeast 254 292 5,200 1,636 Climbing FlightAware ADS-B
Thu 04:40:10 PM 37.3748 -121.8710 138° Southeast 267 307 5,800 2,323 Climbing FlightAware ADS-B
Thu 04:40:26 PM 37.3602 -121.8540 138° Southeast 269 310 6,400 2,516 Climbing FlightAware ADS-B
Thu 04:40:41 PM 37.3462 -121.8380 138° Southeast 273 314 7,100 2,545 Climbing FlightAware ADS-B
Thu 04:40:59 PM 37.3288 -121.8190 138° Southeast 279 321 7,800 2,400 Climbing FlightAware ADS-B
Thu 04:41:21 PM 37.3073 -121.7950 138° Southeast 288 331 8,700 2,526 Climbing FlightAware ADS-B
Thu 04:41:37 PM 37.2940 -121.7796 137° Southeast 294 338 9,400 2,516 Climbing FlightAware ADS-B
Thu 04:41:52 PM 37.2772 -121.7608 138° Southeast 297 342 10,000 2,400 Climbing FlightAware ADS-B
Thu 04:42:07 PM 37.2608 -121.7420 138° Southeast 307 353 10,600 2,217 Climbing FlightAware ADS-B
Thu 04:42:38 PM 37.2258 -121.7030 138° Southeast 337 388 11,700 2,125 Climbing FlightAware ADS-B
Thu 04:42:55 PM 37.2063 -121.6812 138° Southeast 351 404 12,300 1,953 Climbing FlightAware ADS-B
Thu 04:43:21 PM 37.1747 -121.6457 138° Southeast 371 427 13,100 1,867 Climbing FlightAware ADS-B
Thu 04:43:40 PM 37.1493 -121.6170 138° Southeast 382 440 13,700 2,082 Climbing FlightAware ADS-B
Thu 04:44:10 PM 37.1093 -121.5720 138° Southeast 391 450 14,800 2,300 Climbing FlightAware ADS-B
Thu 04:44:40 PM 37.0682 -121.5260 138° Southeast 394 453 16,000 2,300 Climbing FlightAware ADS-B
Thu 04:45:10 PM 37.0271 -121.4810 138° Southeast 400 460 17,100 2,215 Climbing FlightAware ADS-B
Thu 04:45:45 PM 36.9790 -121.4270 138° Southeast 404 465 18,400 2,300 Climbing FlightAware ADS-B
Thu 04:46:10 PM 36.9431 -121.3869 138° Southeast 411 473 19,400 2,323 Climbing FlightAware ADS-B
Thu 04:46:47 PM 36.8894 -121.3270 138° Southeast 419 482 20,800 2,174 Climbing FlightAware ADS-B
Thu 04:47:19 PM 36.8431 -121.2760 138° Southeast 427 491 21,900 2,063 Climbing FlightAware ADS-B
Thu 04:47:51 PM 36.7953 -121.2230 139° Southeast 436 502 23,000 2,000 Climbing FlightAware ADS-B
Thu 04:48:22 PM 36.7504 -121.1735 138° Southeast 443 510 24,000 2,000 Climbing FlightAware ADS-B
Thu 04:48:51 PM 36.7039 -121.1221 138° Southeast 450 518 25,000 2,066 Climbing FlightAware ADS-B
Thu 04:49:23 PM 36.6526 -121.0660 138° Southeast 454 522 26,100 1,412 Climbing FlightAware ADS-B
Thu 04:51:07 PM 36.4861 -120.8830 139° Southeast 465 535 28,200 1,333 Climbing FlightAware ADS-B
Thu 04:51:47 PM 36.4209 -120.8120 139° Southeast 472 543 29,300 1,714 Climbing FlightAware ADS-B
Thu 04:52:17 PM 36.3701 -120.7560 138° Southeast 474 545 30,200 1,672 Climbing FlightAware ADS-B
Thu 04:52:48 PM 36.3193 -120.7010 139° Southeast 479 551 31,000 1,475 Climbing FlightAware ADS-B
Thu 04:53:18 PM 36.2689 -120.6460 139° Southeast 483 556 31,700 1,477 Climbing FlightAware ADS-B
Thu 04:56:07 PM 35.9826 -120.3370 139° Southeast 484 557 35,900 1,493 Climbing FlightAware ADS-B
Thu 04:56:51 PM 35.9159 -120.2654 139° Southeast 484 557 37,000 1,395 Climbing FlightAware ADS-B (KCRQ)
Thu 04:57:33 PM 35.8532 -120.1986 139° Southeast 487 560 37,900 1,440 Climbing FlightAware ADS-B (KCRQ)
Thu 04:59:21 PM 35.6748 -120.0085 141° Southeast 480 552 40,600 1,011 Climbing FlightAware ADS-B (KCRQ)
Thu 05:00:37 PM 35.5346 -119.8814 145° Southeast 474 545 41,000 133 Climbing FlightAware ADS-B (KCRQ)
Thu 05:02:21 PM 35.3333 -119.7081 145° Southeast 477 549 41,000  Level FlightAware ADS-B (KCRQ)
Thu 05:02:45 PM 35.2874 -119.6685 144° Southeast 476 548 41,000  Level FlightAware ADS-B
Thu 05:03:07 PM 35.2490 -119.6356 145° Southeast 475 547 41,000  Level FlightAware ADS-B (KCRQ)
Thu 05:03:45 PM 35.1933 -119.5879 144° Southeast 473 544 41,000  Level FlightAware ADS-B
Thu 05:04:15 PM 35.1269 -119.5310 144° Southeast 471 542 41,000  Level FlightAware ADS-B
Thu 05:04:45 PM 35.0792 -119.4902 144° Southeast 471 542 41,000  Level FlightAware ADS-B
Thu 05:05:15 PM 35.0234 -119.4427 145° Southeast 471 542 41,000  Level FlightAware ADS-B
Thu 05:05:45 PM 34.9699 -119.3972 144° Southeast 470 541 41,000  Level FlightAware ADS-B
Thu 05:06:06 PM 34.9414 -119.3730 145° Southeast 471 542 41,000 -231 Level FlightAware ADS-B (KCRQ)
Thu 05:06:37 PM 34.8914 -119.3306 145° Southeast 472 543 40,800 -984 Descending FlightAware ADS-B (KCRQ)
Thu 05:07:07 PM 34.8390 -119.2862 145° Southeast 476 548 40,000 -1,800 Descending FlightAware ADS-B (KCRQ)
Thu 05:07:37 PM 34.7776 -119.2346 145° Southeast 482 555 39,000 -2,261 Descending FlightAware ADS-B (KCRQ)
Thu 05:08:16 PM 34.6933 -119.1635 145° Southeast 486 559 37,400 -2,609 Descending FlightAware ADS-B
Thu 05:08:46 PM 34.6394 -119.1179 145° Southeast 486 559 36,000 -2,644 Descending FlightAware ADS-B
Thu 05:09:15 PM 34.5838 -119.0711 145° Southeast 483 556 34,800 -2,520 Descending FlightAware ADS-B
Thu 05:09:36 PM 34.5495 -119.0425 145° Southeast 484 557 33,900 -2,600 Descending FlightAware ADS-B (KCRQ)
Thu 05:10:15 PM 34.4725 -118.9780 145° Southeast 483 556 32,200 -2,522 Descending FlightAware ADS-B
Thu 05:10:45 PM 34.4191 -118.9335 145° Southeast 485 558 31,000 -2,471 Descending FlightAware ADS-B
Thu 05:11:06 PM 34.3817 -118.9016 144° Southeast 488 562 30,100 -2,634 Descending FlightAware ADS-B (KCRQ)
Thu 05:11:26 PM 34.3474 -118.8699 141° Southeast 483 556 29,200 -2,769 Descending FlightAware ADS-B (KEMT)
Thu 05:11:45 PM 34.3102 -118.8318 138° Southeast 473 544 28,300 -2,571 Descending FlightAware ADS-B
Thu 05:12:15 PM 34.2631 -118.7813 138° Southeast 456 525 27,100 -2,300 Descending FlightAware ADS-B
Thu 05:12:45 PM 34.2151 -118.7301 138° Southeast 446 513 26,000 -2,300 Descending FlightAware ADS-B
Thu 05:13:15 PM 34.1699 -118.6822 138° Southeast 441 507 24,800 -2,192 Descending FlightAware ADS-B
Thu 05:13:37 PM 34.1377 -118.6483 139° Southeast 441 507 24,100 -1,171 Descending FlightAware ADS-B (KCRQ)
Thu 05:13:56 PM 34.1079 -118.6167 138° Southeast 443 510 24,000 -1,091 Descending FlightAware ADS-B
Thu 05:14:21 PM 34.0784 -118.5853 139° Southeast 440 506 23,300 -1,714 Descending FlightAware ADS-B (KCRQ)
Thu 05:14:52 PM 34.0265 -118.5305 139° Southeast 437 503 22,400 -1,745 Descending FlightAware ADS-B (KCRQ)
Thu 05:15:16 PM 33.9882 -118.4912 146° Southeast 433 498 21,700 -1,846 Descending FlightAware ADS-B
Thu 05:15:31 PM 34.0192 -118.5229 138° Southeast 438 504 21,200 -1,886 Descending FlightAware ADS-B (KEMT)
Thu 05:15:51 PM 33.9202 -118.4581 170° South 428 493 20,600 -1,833 Descending FlightAware ADS-B (KCRQ)
Thu 05:16:07 PM 33.8971 -118.4552 181° South 421 484 20,100 -1,029 Descending FlightAware ADS-B (KCRQ)
Thu 05:16:26 PM 33.8661 -118.4575 189° South 415 478 20,000 -136 Descending FlightAware ADS-B (KEMT)
Thu 05:16:51 PM 33.8054 -118.4764 196° South 418 481 20,000  Level FlightAware ADS-B (KCRQ)
Thu 05:17:22 PM 33.7490 -118.4957 196° South 418 481 20,000  Level FlightAware ADS-B (KCRQ)
Thu 05:18:06 PM 33.6664 -118.5238 196° South 418 481 20,000 -240 Level FlightAware ADS-B
Thu 05:18:37 PM 33.6118 -118.5420 194° South 419 482 19,700 -1,174 Descending FlightAware ADS-B (KCRQ)
Thu 05:18:52 PM 33.5812 -118.5461 180° South 417 480 19,100 -2,364 Descending FlightAware ADS-B (KCRQ)
Thu 05:19:10 PM 33.5452 -118.5419 167° South 411 473 18,400 -2,500 Descending FlightAware ADS-B
Thu 05:19:40 PM 33.4916 -118.5168 148° Southeast 405 466 17,100 -2,700 Descending FlightAware ADS-B
Thu 05:20:10 PM 33.4489 -118.4817 144° Southeast 399 459 15,700 -2,880 Descending FlightAware ADS-B
Thu 05:20:30 PM 33.4174 -118.4546 140° Southeast 394 453 14,700 -2,700 Descending FlightAware ADS-B
Thu 05:20:50 PM 33.3980 -118.4312 132° Southeast 392 451 13,900 -3,000 Descending FlightAware ADS-B
Thu 05:21:06 PM 33.3774 -118.3914 115° Southeast 383 441 12,900 -2,780 Descending FlightAware ADS-B (KEMT)
Thu 05:21:31 PM 33.3655 -118.3437 99° East 375 432 12,000 -2,087 Descending FlightAware ADS-B
Thu 05:21:52 PM 33.3597 -118.2999 99° East 373 429 11,300 -909 Descending FlightAware ADS-B (KCRQ)
Thu 05:22:37 PM 33.3495 -118.2238 99° East 323 372 11,000 -286 Descending FlightAware ADS-B (KCRQ)
Thu 05:22:55 PM 33.3439 -118.1813 99° East 310 357 11,000  Level FlightAware ADS-B
Thu 05:23:25 PM 33.3371 -118.1297 99° East 312 359 11,000 -923 Level FlightAware ADS-B
Thu 05:24:00 PM 33.3291 -118.0700 99° East 316 364 10,000 -1,680 Descending FlightAware ADS-B
Thu 05:24:15 PM 33.3267 -118.0521 99° East 311 358 9,600 -1,543 Descending FlightAware ADS-B
Thu 05:24:35 PM 33.3213 -118.0119 98° East 305 351 9,100 -1,543 Descending FlightAware ADS-B
Thu 05:24:50 PM 33.3180 -117.9861 98° East 303 349 8,700 -1,600 Descending FlightAware ADS-B
Thu 05:25:05 PM 33.3148 -117.9619 98° East 299 344 8,300 -1,600 Descending FlightAware ADS-B
Thu 05:25:20 PM 33.3117 -117.9377 98° East 296 341 7,900 -1,548 Descending FlightAware ADS-B
Thu 05:25:36 PM 33.3084 -117.9131 99° East 294 338 7,500 -1,455 Descending FlightAware ADS-B
Thu 05:25:53 PM 33.3051 -117.8887 99° East 293 337 7,100 -1,455 Descending FlightAware ADS-B (KCRQ)
Thu 05:26:09 PM 33.3019 -117.8652 99° East 290 334 6,700 -1,622 Descending FlightAware ADS-B (KCRQ)
Thu 05:26:30 PM 33.2968 -117.8273 99° East 286 329 6,100 -1,500 Descending FlightAware ADS-B
Thu 05:26:53 PM 33.2922 -117.7935 99° East 285 328 5,600 -1,421 Descending FlightAware ADS-B (KCRQ)
Thu 05:27:08 PM 33.2892 -117.7710 99° East 286 329 5,200 -1,059 Descending FlightAware ADS-B (KCRQ)
Thu 05:27:27 PM 33.2850 -117.7403 99° East 285 328 5,000 -409 Descending FlightAware ADS-B
Thu 05:27:52 PM 33.2791 -117.7072 104° East 286 329 4,900 -585 Descending FlightAware ADS-B (KCRQ)
Thu 05:28:08 PM 33.2728 -117.6771 104° East 284 327 4,600 -968 Descending FlightAware ADS-B (KCRQ)
Thu 05:28:23 PM 33.2680 -117.6543 104° East 282 325 4,400 -955 Descending FlightAware ADS-B (KCRQ)
Thu 05:28:52 PM 33.2596 -117.6128 99° East 282 325 3,900 -1,091 Descending FlightAware ADS-B (KCRQ)
Thu 05:29:07 PM 33.2570 -117.5863 96° East 279 321 3,600 -774 Descending FlightAware ADS-B (KCRQ)
Thu 05:29:23 PM 33.2549 -117.5650 97° East 280 322 3,500 -194 Descending FlightAware ADS-B (KCRQ)
Thu 05:29:38 PM 33.2525 -117.5405 97° East 277 319 3,500  Level FlightAware ADS-B (KCRQ)
Thu 05:30:07 PM 33.2484 -117.4966 96° East 279 321 3,500  Level FlightAware ADS-B (KCRQ)
Thu 05:30:23 PM 33.2459 -117.4715 97° East 280 322 3,500  Level FlightAware ADS-B (KCRQ)
Thu 05:30:38 PM 33.2438 -117.4488 97° East 279 321 3,500  Level FlightAware ADS-B (KCRQ)
Thu 05:30:53 PM 33.2416 -117.4268 97° East 281 323 3,500  Level FlightAware ADS-B (KCRQ)
Thu 05:31:08 PM 33.2395 -117.4037 95° East 280 322 3,500  Level FlightAware ADS-B (KCRQ)
Thu 05:31:37 PM 33.2364 -117.3563 94° East 279 321 3,500  Level FlightAware ADS-B (KCRQ)
Thu 05:31:53 PM 33.2349 -117.3332 95° East 282 325 3,500  Level FlightAware ADS-B (KCRQ)
Thu 05:32:08 PM 33.2333 -117.3103 94° East 280 322 3,500  Level FlightAware ADS-B (KCRQ)
Thu 05:32:53 PM 33.2310 -117.2436 89° East 253 291 3,500  Level FlightAware ADS-B (KCRQ)
Thu 05:33:08 PM 33.2311 -117.2230 90° East 231 266 3,500  Level FlightAware ADS-B (KCRQ)
Thu 05:33:23 PM 33.2312 -117.2044 89° East 213 245 3,500  Level FlightAware ADS-B (KCRQ)
Thu 05:33:38 PM 33.2315 -117.1866 89° East 203 234 3,500  Level FlightAware ADS-B (KCRQ)
Thu 05:34:09 PM 33.2290 -117.1524 110° East 204 235 3,500  Level FlightAware ADS-B (KCRQ)
Thu 05:34:24 PM 33.2219 -117.1373 129° Southeast 201 231 3,500  Level FlightAware ADS-B (KCRQ)
Thu 05:34:53 PM 33.1990 -117.1201 167° South 203 234 3,500  Level FlightAware ADS-B (KCRQ)
Thu 05:35:08 PM 33.1854 -117.1189 187° South 200 230 3,500 -387 Level FlightAware ADS-B (KCRQ)
Thu 05:35:24 PM 33.1713 -117.1235 205° Southwest 200 230 3,300 -968 Descending FlightAware ADS-B (KCRQ)
Thu 05:35:39 PM 33.1601 -117.1329 224° Southwest 191 220 3,000 -1,227 Descending FlightAware ADS-B (KCRQ)
Thu 05:36:08 PM 33.1481 -117.1579 256° West 168 193 2,400 -1,067 Descending FlightAware ADS-B (KCRQ)
Thu 05:36:24 PM 33.1459 -117.1709 259° West 155 178 2,200 -774 Descending FlightAware ADS-B (KCRQ)
Thu 05:36:39 PM 33.1440 -117.1823 258° West 135 155 2,000 -800 Descending FlightAware ADS-B (KCRQ)
Thu 05:36:54 PM 33.1422 -117.1928 260° West 121 139 1,800 -682 Descending FlightAware ADS-B (KCRQ)
Thu 05:37:23 PM 33.1391 -117.2126 260° West 121 139 1,500 -667 Descending FlightAware ADS-B (KCRQ)
Thu 05:37:39 PM 33.1376 -117.2225 259° West 123 142 1,300 -774 Descending FlightAware ADS-B (KCRQ)
Thu 05:37:54 PM 33.1359 -117.2327 259° West 129 148 1,100 -800 Descending FlightAware ADS-B (KCRQ)
Thu 05:38:09 PM 33.1341 -117.2435 259° West 124 143 900 -682 Descending FlightAware ADS-B (KCRQ)
Thu 05:38:38 PM 33.1309 -117.2633 259° West 123 142 600 -667 Descending FlightAware ADS-B (KCRQ)
Thu 05:38:54 PM 33.1295 -117.2720 259° West 122 140 400 -581 Descending FlightAware ADS-B (KCRQ)
Thu 05:39:09 PM 33.1284 -117.2795 259° West 107 123 300 -400 Descending FlightAware ADS-B (KCRQ)

Login

Don't have an account? Register now (free) for customized features, flight alerts, and more!